createdAt,value
2019-02-16T00:00:06.605Z,49.72
2019-02-16T00:02:33.285Z,49.68
2019-02-16T00:05:00.410Z,49.54
2019-02-16T00:07:26.580Z,49.52
2019-02-16T00:09:52.696Z,49.67
2019-02-16T00:12:18.920Z,49.52
2019-02-16T00:14:45.101Z,49.36
2019-02-16T00:17:11.248Z,49.42
2019-02-16T00:19:37.423Z,49.43
2019-02-16T00:22:03.504Z,49.32
2019-02-16T00:24:29.726Z,49.44
2019-02-16T00:26:55.820Z,49.53
2019-02-16T00:29:22.017Z,49.60
2019-02-16T00:31:48.100Z,49.37
2019-02-16T00:34:14.457Z,49.36
2019-02-16T00:36:40.568Z,49.35
2019-02-16T00:39:06.771Z,49.51
2019-02-16T00:41:33.048Z,49.57
2019-02-16T00:43:59.248Z,49.53
2019-02-16T00:46:25.610Z,49.20
2019-02-16T00:48:51.810Z,49.54
2019-02-16T00:51:18.021Z,49.24
2019-02-16T00:53:44.264Z,49.26
2019-02-16T00:56:10.473Z,49.34
2019-02-16T00:58:36.606Z,49.44
2019-02-16T01:01:02.785Z,49.53
2019-02-16T01:03:28.909Z,49.58
2019-02-16T01:05:58.093Z,49.55
2019-02-16T01:08:24.359Z,49.51
2019-02-16T01:10:50.621Z,49.43
2019-02-16T01:13:16.862Z,49.37
2019-02-16T01:15:43.103Z,49.23
2019-02-16T01:18:09.407Z,49.03
2019-02-16T01:20:35.619Z,48.38
2019-02-16T01:23:01.965Z,48.71
2019-02-16T01:25:28.149Z,48.74
2019-02-16T01:27:54.901Z,48.72
2019-02-16T01:30:22.424Z,48.97
2019-02-16T01:32:48.603Z,48.82
2019-02-16T01:35:14.835Z,48.77
2019-02-16T01:37:40.975Z,48.56
2019-02-16T01:40:07.924Z,48.83
2019-02-16T01:42:34.144Z,47.90
2019-02-16T01:45:00.239Z,47.46
2019-02-16T01:47:26.439Z,47.54
2019-02-16T01:49:53.641Z,46.94
2019-02-16T01:52:19.850Z,47.25
2019-02-16T01:54:45.976Z,47.57
2019-02-16T01:57:12.077Z,47.22
2019-02-16T01:59:38.244Z,47.40
2019-02-16T02:02:05.018Z,46.94
2019-02-16T02:04:31.124Z,47.45
2019-02-16T02:06:57.321Z,47.10
2019-02-16T02:09:23.608Z,46.64
2019-02-16T02:11:49.816Z,46.72
2019-02-16T02:14:17.031Z,47.11
2019-02-16T02:16:43.210Z,47.10
2019-02-16T02:19:09.360Z,46.94
2019-02-16T02:21:41.150Z,47.16
2019-02-16T02:24:03.664Z,47.36
2019-02-16T02:26:30.536Z,47.39
2019-02-16T02:28:58.534Z,47.75
2019-02-16T02:31:24.751Z,47.59
2019-02-16T02:33:51.591Z,47.62
2019-02-16T02:36:17.808Z,47.52
2019-02-16T02:38:43.915Z,47.60
2019-02-16T02:41:10.124Z,47.28
2019-02-16T02:43:36.209Z,47.37
2019-02-16T02:46:02.974Z,47.66
2019-02-16T02:48:29.255Z,47.72
2019-02-16T02:50:56.033Z,47.72
2019-02-16T02:53:30.796Z,47.67
2019-02-16T02:55:50.347Z,47.96
2019-02-16T02:58:16.451Z,48.19
2019-02-16T03:00:42.656Z,47.96
2019-02-16T03:03:08.964Z,48.10
2019-02-16T03:05:35.188Z,47.84
2019-02-16T03:08:02.394Z,47.95
2019-02-16T03:10:28.617Z,47.98
2019-02-16T03:12:55.030Z,47.96
2019-02-16T03:15:24.100Z,48.17
2019-02-16T03:17:50.189Z,47.91
2019-02-16T03:20:17.033Z,47.76
2019-02-16T03:23:03.638Z,47.59
2019-02-16T03:25:29.879Z,47.29
2019-02-16T03:28:06.873Z,47.26
2019-02-16T03:31:04.381Z,47.51
2019-02-16T03:33:38.049Z,47.40
2019-02-16T03:36:20.187Z,47.46
2019-02-16T03:38:50.596Z,47.35
2019-02-16T03:41:16.875Z,47.09
2019-02-16T03:43:44.082Z,46.45
2019-02-16T03:46:10.324Z,46.62
2019-02-16T03:48:37.992Z,47.11
2019-02-16T03:51:05.617Z,46.75
2019-02-16T03:53:32.077Z,46.71
2019-02-16T03:55:58.276Z,46.35
2019-02-16T03:58:24.446Z,46.46
2019-02-16T04:00:50.622Z,46.45
2019-02-16T04:03:18.857Z,46.40
2019-02-16T04:05:45.174Z,46.39
2019-02-16T04:08:11.359Z,46.42
2019-02-16T04:10:37.633Z,46.38
2019-02-16T04:13:03.762Z,46.24
2019-02-16T04:15:31.068Z,46.28
2019-02-16T04:17:57.174Z,46.47
2019-02-16T04:20:23.920Z,46.41
2019-02-16T04:22:50.082Z,46.17
2019-02-16T04:25:16.245Z,46.25
2019-02-16T04:27:43.494Z,46.09
2019-02-16T04:30:10.703Z,45.79
2019-02-16T04:32:37.487Z,45.94
2019-02-16T04:35:04.742Z,46.22
2019-02-16T04:37:31.597Z,46.10
2019-02-16T04:39:57.828Z,45.95
2019-02-16T04:42:25.602Z,45.81
2019-02-16T04:44:51.920Z,46.08
2019-02-16T04:47:20.434Z,45.76
2019-02-16T04:49:46.598Z,45.92
2019-02-16T04:52:12.826Z,46.09
2019-02-16T04:54:40.526Z,46.18
2019-02-16T04:57:06.850Z,46.24
2019-02-16T04:59:33.202Z,46.43
2019-02-16T05:01:59.448Z,46.21
2019-02-16T05:04:26.072Z,46.42
2019-02-16T05:06:52.259Z,45.81
2019-02-16T05:09:18.390Z,45.97
2019-02-16T05:11:44.941Z,46.15
2019-02-16T05:14:11.035Z,46.35
2019-02-16T05:16:38.181Z,46.13
2019-02-16T05:19:05.387Z,46.18
2019-02-16T05:21:31.631Z,45.99
2019-02-16T05:23:57.789Z,46.32
2019-02-16T05:26:24.075Z,46.43
2019-02-16T05:28:50.324Z,45.83
2019-02-16T05:31:16.591Z,45.99
2019-02-16T05:33:43.138Z,45.82
2019-02-16T05:36:09.386Z,45.88
2019-02-16T05:38:35.594Z,46.10
2019-02-16T05:41:02.105Z,46.15
2019-02-16T05:43:28.323Z,46.34
2019-02-16T05:45:55.176Z,46.03
2019-02-16T05:48:21.385Z,46.37
2019-02-16T05:50:48.203Z,46.61
2019-02-16T05:53:14.348Z,46.22
2019-02-16T05:55:40.559Z,46.27
2019-02-16T05:58:07.756Z,46.18
2019-02-16T06:00:33.926Z,46.35
2019-02-16T06:03:00.307Z,46.51
2019-02-16T06:05:26.517Z,46.30
2019-02-16T06:07:52.627Z,46.74
2019-02-16T06:10:19.125Z,46.46
2019-02-16T06:12:45.607Z,46.68
2019-02-16T06:15:12.150Z,45.97
2019-02-16T06:17:38.274Z,46.08
2019-02-16T06:20:06.543Z,45.93
2019-02-16T06:22:32.815Z,45.61
2019-02-16T06:24:58.992Z,46.12
2019-02-16T06:27:25.132Z,45.26
2019-02-16T06:29:51.345Z,45.58
2019-02-16T06:32:17.490Z,45.00
2019-02-16T06:34:43.691Z,45.18
2019-02-16T06:37:24.393Z,45.31
2019-02-16T06:39:50.803Z,45.53
2019-02-16T06:42:17.052Z,44.99
2019-02-16T06:44:44.140Z,45.12
2019-02-16T06:47:10.528Z,45.39
2019-02-16T06:49:36.784Z,44.42
2019-02-16T06:52:03.074Z,44.61
2019-02-16T06:54:29.308Z,45.06
2019-02-16T06:57:14.037Z,44.23
2019-02-16T06:59:40.238Z,44.16
2019-02-16T07:02:06.384Z,43.92
2019-02-16T07:04:32.602Z,44.13
2019-02-16T07:06:58.736Z,44.14
2019-02-16T07:09:24.974Z,44.36
2019-02-16T07:11:51.135Z,43.07
2019-02-16T07:14:17.375Z,43.79
2019-02-16T07:16:45.965Z,43.17
2019-02-16T07:19:16.807Z,42.92
2019-02-16T07:21:43.446Z,42.70
2019-02-16T07:24:09.809Z,42.35
2019-02-16T07:26:36.538Z,42.41
2019-02-16T07:29:02.703Z,41.70
2019-02-16T07:31:30.010Z,41.91
2019-02-16T07:33:56.150Z,41.58
2019-02-16T07:36:22.350Z,42.22
2019-02-16T07:38:48.584Z,41.55
2019-02-16T07:41:14.827Z,40.95
2019-02-16T07:43:49.279Z,40.41
2019-02-16T07:46:17.271Z,40.30
2019-02-16T07:48:45.394Z,40.01
2019-02-16T07:51:13.454Z,39.49
2019-02-16T07:53:42.168Z,38.93
2019-02-16T07:56:10.260Z,38.69
2019-02-16T07:58:41.339Z,38.10
2019-02-16T08:01:21.509Z,37.84
2019-02-16T08:03:52.504Z,37.84
2019-02-16T08:06:32.537Z,37.48
2019-02-16T08:09:01.589Z,37.06
2019-02-16T08:11:31.025Z,36.57
2019-02-16T08:14:01.901Z,36.74
2019-02-16T08:16:54.792Z,36.68
2019-02-16T08:19:28.932Z,36.41
2019-02-16T08:22:00.077Z,36.36
2019-02-16T08:24:28.176Z,35.90
2019-02-16T08:26:56.228Z,35.88
2019-02-16T08:29:30.180Z,34.87
2019-02-16T08:31:58.464Z,34.52
2019-02-16T08:34:29.613Z,33.90
2019-02-16T08:37:14.428Z,34.03
2019-02-16T08:39:58.842Z,34.28
2019-02-16T08:42:26.990Z,33.28
2019-02-16T08:44:55.142Z,33.35
2019-02-16T08:47:32.143Z,33.79
2019-02-16T08:50:03.201Z,32.53
2019-02-16T08:52:34.178Z,32.24
2019-02-16T08:55:02.369Z,32.27
2019-02-16T08:57:33.332Z,32.34
2019-02-16T09:00:19.391Z,31.55
2019-02-16T09:02:47.640Z,31.22
2019-02-16T09:05:15.773Z,30.35
2019-02-16T09:07:47.304Z,30.98
2019-02-16T09:10:18.687Z,29.90
2019-02-16T09:12:47.205Z,29.36
2019-02-16T09:15:18.195Z,29.91
2019-02-16T09:17:55.615Z,29.24
2019-02-16T09:20:23.987Z,28.80
2019-02-16T09:22:52.374Z,27.54
2019-02-16T09:25:32.555Z,26.68
2019-02-16T09:28:04.118Z,27.97
2019-02-16T09:30:32.651Z,28.10
2019-02-16T09:33:07.046Z,27.83
2019-02-16T09:35:38.154Z,25.96
2019-02-16T09:38:17.831Z,25.82
2019-02-16T09:40:57.777Z,27.45
2019-02-16T09:43:32.137Z,26.62
2019-02-16T09:46:15.424Z,26.23
2019-02-16T09:48:49.520Z,26.21
2019-02-16T09:51:21.095Z,25.66
2019-02-16T09:53:49.127Z,25.62
2019-02-16T09:56:19.114Z,26.51
2019-02-16T09:58:57.193Z,26.83
2019-02-16T10:01:25.299Z,26.23
2019-02-16T10:04:05.140Z,25.90
2019-02-16T10:06:48.295Z,25.42
2019-02-16T10:09:16.935Z,24.64
2019-02-16T10:11:45.321Z,24.96
2019-02-16T10:14:19.329Z,24.89
2019-02-16T10:16:47.866Z,23.95
2019-02-16T10:19:21.717Z,24.34
2019-02-16T10:21:49.780Z,24.23
2019-02-16T10:24:34.488Z,23.13
2019-02-16T10:27:19.510Z,23.59
2019-02-16T10:29:50.942Z,23.26
2019-02-16T10:32:20.052Z,23.50
2019-02-16T10:34:48.157Z,22.45
2019-02-16T10:37:18.994Z,21.55
2019-02-16T10:39:53.296Z,21.70
2019-02-16T10:42:24.824Z,22.24
2019-02-16T10:45:10.233Z,20.67
2019-02-16T10:47:38.970Z,20.10
2019-02-16T10:50:11.693Z,19.92
2019-02-16T10:52:41.281Z,19.97
2019-02-16T10:55:16.199Z,19.61
2019-02-16T11:13:11.382Z,17.85
2019-02-16T11:15:39.486Z,17.06
2019-02-16T11:18:16.465Z,16.78
2019-02-16T11:20:57.042Z,17.52
2019-02-16T11:23:27.078Z,15.86
2019-02-16T11:26:11.777Z,16.36
2019-02-16T11:28:49.889Z,16.04
2019-02-16T11:31:21.258Z,16.21
2019-02-16T11:34:04.134Z,15.24
2019-02-16T11:36:35.753Z,15.24
2019-02-16T11:39:08.307Z,14.69
2019-02-16T11:41:36.401Z,15.42
2019-02-16T11:44:13.752Z,14.54
2019-02-16T11:46:47.588Z,15.10
2019-02-16T11:49:18.670Z,14.83
2019-02-16T11:51:52.428Z,15.23
2019-02-16T11:54:20.568Z,14.93
2019-02-16T11:56:54.444Z,14.70
2019-02-16T11:59:22.546Z,14.21
2019-02-16T12:01:53.447Z,13.75
2019-02-16T12:04:24.573Z,13.55
2019-02-16T12:07:10.209Z,14.17
2019-02-16T12:09:54.866Z,13.40
2019-02-16T12:12:29.029Z,13.74
2019-02-16T12:15:15.078Z,13.46
2019-02-16T12:17:49.242Z,13.98
2019-02-16T12:20:20.604Z,13.72
2019-02-16T12:23:01.995Z,13.33
2019-02-16T12:25:30.218Z,13.52
2019-02-16T12:28:10.597Z,12.97
2019-02-16T12:30:47.763Z,12.22
2019-02-16T12:33:32.609Z,12.58
2019-02-16T12:36:00.651Z,13.07
2019-02-16T12:38:31.548Z,13.26
2019-02-16T12:41:08.713Z,12.17
2019-02-16T12:43:36.879Z,13.30
2019-02-16T12:46:05.372Z,12.47
2019-02-16T12:48:42.383Z,12.09
2019-02-16T12:51:26.035Z,12.47
2019-02-16T12:54:13.975Z,12.23
2019-02-16T12:56:42.260Z,12.77
2019-02-16T12:59:10.835Z,11.59
2019-02-16T13:01:54.455Z,11.65
2019-02-16T13:04:39.196Z,11.97
2019-02-16T13:07:07.230Z,12.33
2019-02-16T13:09:40.255Z,11.67
2019-02-16T13:12:08.056Z,11.77
2019-02-16T13:14:36.416Z,12.34
2019-02-16T13:17:16.540Z,11.80
2019-02-16T13:19:44.655Z,11.15
2019-02-16T13:22:19.097Z,10.92
2019-02-16T13:24:47.251Z,11.72
2019-02-16T13:27:15.533Z,11.89
2019-02-16T13:29:46.517Z,11.83
2019-02-16T13:32:31.320Z,11.92
2019-02-16T13:35:16.066Z,11.91
2019-02-16T13:37:44.143Z,11.74
2019-02-16T13:40:29.268Z,11.85
2019-02-16T13:42:57.262Z,11.74
2019-02-16T13:45:25.962Z,12.40
2019-02-16T13:47:54.471Z,12.26
2019-02-16T13:50:50.784Z,12.64
2019-02-16T13:53:31.208Z,12.91
2019-02-16T13:56:08.295Z,13.03
2019-02-16T13:58:39.198Z,13.69
2019-02-16T14:01:07.243Z,13.87
2019-02-16T14:03:35.358Z,13.52
2019-02-16T14:06:15.697Z,14.18
2019-02-16T14:08:59.082Z,14.70
2019-02-16T14:11:42.726Z,14.95
2019-02-16T14:14:10.928Z,15.35
2019-02-16T14:16:39.055Z,15.86
2019-02-16T14:19:05.271Z,15.31
2019-02-16T14:21:31.504Z,16.47
2019-02-16T14:23:57.631Z,16.59
2019-02-16T14:26:23.923Z,16.65
2019-02-16T14:28:50.018Z,17.52
2019-02-16T14:31:18.100Z,18.14
2019-02-16T14:33:44.248Z,18.25
2019-02-16T14:36:10.431Z,17.61
2019-02-16T14:38:38.527Z,17.64
2019-02-16T14:41:04.874Z,17.35
2019-02-16T14:43:31.010Z,16.97
2019-02-16T14:45:57.504Z,17.40
2019-02-16T14:48:23.709Z,17.80
2019-02-16T14:50:50.192Z,17.95
2019-02-16T14:53:17.490Z,18.23
2019-02-16T14:55:52.338Z,18.40
2019-02-16T14:58:12.205Z,18.29
2019-02-16T15:00:39.033Z,18.64
2019-02-16T15:03:05.205Z,18.77
2019-02-16T15:05:32.489Z,18.71
2019-02-16T15:08:01.387Z,19.31
2019-02-16T15:10:28.603Z,19.50
2019-02-16T15:12:54.714Z,19.64
2019-02-16T15:15:21.063Z,19.64
2019-02-16T15:17:49.477Z,19.65
2019-02-16T15:20:19.394Z,19.14
2019-02-16T15:22:45.540Z,18.71
2019-02-16T15:25:12.711Z,18.88
2019-02-16T15:27:40.097Z,19.46
2019-02-16T15:30:14.231Z,19.65
2019-02-16T15:32:42.485Z,19.83
2019-02-16T15:35:09.576Z,20.25
2019-02-16T15:37:35.783Z,20.37
2019-02-16T15:40:02.923Z,20.16
2019-02-16T15:42:30.120Z,20.12
2019-02-16T15:44:56.618Z,20.66
2019-02-16T15:47:22.876Z,20.72
2019-02-16T15:49:49.248Z,20.79
2019-02-16T15:52:15.401Z,21.14
2019-02-16T15:54:41.645Z,21.39
2019-02-16T15:57:07.936Z,21.11
2019-02-16T15:59:35.405Z,21.61
2019-02-16T16:02:01.891Z,21.94
2019-02-16T16:04:28.074Z,21.79
2019-02-16T16:06:54.220Z,21.67
2019-02-16T16:09:37.508Z,21.72
2019-02-16T16:12:11.888Z,22.03
2019-02-16T16:14:58.381Z,22.18
2019-02-16T16:17:41.705Z,22.47
2019-02-16T16:20:09.811Z,22.60
2019-02-16T16:22:44.202Z,22.88
2019-02-16T16:25:21.523Z,23.31
2019-02-16T16:28:04.914Z,23.30
2019-02-16T16:30:33.245Z,23.53
2019-02-16T16:33:13.502Z,24.16
2019-02-16T16:35:41.592Z,24.65
2019-02-16T16:38:09.703Z,24.74
2019-02-16T16:40:37.830Z,25.21
2019-02-16T16:43:11.785Z,25.88
2019-02-16T16:45:40.167Z,25.67
2019-02-16T16:48:18.590Z,26.62
2019-02-16T16:50:46.896Z,26.67
2019-02-16T16:53:18.477Z,26.74
2019-02-16T16:55:57.597Z,27.21
2019-02-16T16:58:34.919Z,28.73
2019-02-16T17:01:03.203Z,28.86
2019-02-16T17:03:31.354Z,28.83
2019-02-16T17:05:59.749Z,29.91
2019-02-16T17:08:27.915Z,30.45
2019-02-16T17:11:02.431Z,31.08
2019-02-16T17:13:33.939Z,30.27
2019-02-16T17:16:14.501Z,29.90
2019-02-16T17:18:49.104Z,30.45
2019-02-16T17:21:23.195Z,29.79
2019-02-16T17:23:54.460Z,31.16
2019-02-16T17:26:37.720Z,30.91
2019-02-16T17:29:14.103Z,30.55
2019-02-16T17:31:57.588Z,30.79
2019-02-16T17:34:44.294Z,30.96
2019-02-16T17:37:18.753Z,30.92
2019-02-16T17:40:04.258Z,30.89
2019-02-16T17:42:38.120Z,30.56
2019-02-16T17:45:21.491Z,29.94
2019-02-16T17:47:49.966Z,30.06
2019-02-16T17:50:36.391Z,29.82
2019-02-16T17:53:11.887Z,30.11
2019-02-16T17:55:55.561Z,30.23
2019-02-16T17:58:26.654Z,30.67
2019-02-16T18:01:08.522Z,30.83
2019-02-16T18:03:37.124Z,30.12
2019-02-16T18:06:05.405Z,30.49
2019-02-16T18:08:35.822Z,31.40
2019-02-16T18:11:03.992Z,31.61
2019-02-16T18:13:38.189Z,31.06
2019-02-16T18:16:07.454Z,31.35
2019-02-16T18:18:36.343Z,30.82
2019-02-16T18:21:13.321Z,31.50
2019-02-16T18:23:47.067Z,31.28
2019-02-16T18:26:20.890Z,30.75
2019-02-16T18:28:57.337Z,30.59
2019-02-16T18:31:22.382Z,30.52
2019-02-16T18:34:02.240Z,30.29
2019-02-16T18:36:47.046Z,30.05
2019-02-16T18:39:32.846Z,30.02
2019-02-16T18:42:20.464Z,29.82
2019-02-16T18:44:54.368Z,30.21
2019-02-16T18:47:22.412Z,29.91
2019-02-16T18:50:07.162Z,30.01
2019-02-16T18:52:41.244Z,30.46
2019-02-16T18:55:11.148Z,30.31
2019-02-16T18:57:39.731Z,30.66
2019-02-16T19:00:11.273Z,30.34
2019-02-16T19:02:39.396Z,30.17
2019-02-16T19:05:10.714Z,30.22
2019-02-16T19:07:38.760Z,30.16
2019-02-16T19:10:25.642Z,29.82
2019-02-16T19:13:05.672Z,30.29
2019-02-16T19:15:39.820Z,30.33
2019-02-16T19:18:07.974Z,30.57
2019-02-16T19:20:38.801Z,30.58
2019-02-16T19:23:09.666Z,30.89
2019-02-16T19:25:40.423Z,30.40
2019-02-16T19:28:15.178Z,30.74
2019-02-16T19:30:59.605Z,30.50
2019-02-16T19:33:27.812Z,30.54
2019-02-16T19:36:02.186Z,31.01
2019-02-16T19:38:30.328Z,30.94
2019-02-16T19:40:58.505Z,30.92
2019-02-16T19:43:28.101Z,30.61
2019-02-16T19:46:02.187Z,30.60
2019-02-16T19:48:42.962Z,31.01
2019-02-16T19:51:23.243Z,30.96
2019-02-16T19:53:57.403Z,30.88
2019-02-16T19:56:25.562Z,31.21
2019-02-16T19:58:59.511Z,31.17
2019-02-16T20:01:30.889Z,31.23
2019-02-16T20:04:04.822Z,32.16
2019-02-16T20:06:49.626Z,32.49
2019-02-16T20:09:19.210Z,32.17
2019-02-16T20:12:03.582Z,32.32
2019-02-16T20:14:37.537Z,32.29
2019-02-16T20:17:08.691Z,32.21
2019-02-16T20:19:48.680Z,31.98
2019-02-16T20:22:34.927Z,32.33
2019-02-16T20:25:04.417Z,32.48
2019-02-16T20:27:37.595Z,32.83
2019-02-16T20:30:07.230Z,31.94
2019-02-16T20:32:39.945Z,32.38
2019-02-16T20:35:07.947Z,31.66
2019-02-16T20:37:39.510Z,31.38
2019-02-16T20:40:19.598Z,31.46
2019-02-16T20:42:56.706Z,31.26
2019-02-16T20:45:27.663Z,31.69
2019-02-16T20:48:10.865Z,31.71
2019-02-16T20:50:48.552Z,31.83
2019-02-16T20:53:24.111Z,31.97
2019-02-16T20:55:53.423Z,32.00
2019-02-16T20:58:33.856Z,32.00
2019-02-16T21:01:10.668Z,32.47
2019-02-16T21:03:38.721Z,32.61
2019-02-16T21:06:12.671Z,32.47
2019-02-16T21:08:40.797Z,32.76
2019-02-16T21:11:09.570Z,32.58
2019-02-16T21:13:50.007Z,32.84
2019-02-16T21:16:34.870Z,32.82
2019-02-16T21:19:06.053Z,33.15
2019-02-16T21:21:50.659Z,33.34
2019-02-16T21:24:18.759Z,33.61
2019-02-16T21:26:53.683Z,33.82
2019-02-16T21:29:22.539Z,34.23
2019-02-16T21:31:50.998Z,34.11
2019-02-16T21:34:25.354Z,34.15
2019-02-16T21:36:54.226Z,34.53
2019-02-16T21:39:22.343Z,34.72
2019-02-16T21:42:06.750Z,34.86
2019-02-16T21:44:34.848Z,34.95
2019-02-16T21:47:06.355Z,34.92
2019-02-16T21:49:51.359Z,35.00
2019-02-16T21:52:19.607Z,34.44
2019-02-16T21:55:02.865Z,34.74
2019-02-16T21:57:48.717Z,34.75
2019-02-16T22:00:25.583Z,35.30
2019-02-16T22:02:53.591Z,35.27
2019-02-16T22:05:28.335Z,35.31
2019-02-16T22:07:59.455Z,34.54
2019-02-16T22:10:27.841Z,34.45
2019-02-16T22:13:02.273Z,34.29
2019-02-16T22:15:28.962Z,34.62
2019-02-16T22:17:56.447Z,35.01
2019-02-16T22:20:24.031Z,34.87
2019-02-16T22:22:50.273Z,34.87
2019-02-16T22:25:19.514Z,34.76
2019-02-16T22:27:45.161Z,34.75
2019-02-16T22:30:11.371Z,34.24
2019-02-16T22:32:37.588Z,34.02
2019-02-16T22:35:04.535Z,34.08
2019-02-16T22:37:30.804Z,33.76
2019-02-16T22:39:59.598Z,33.44
2019-02-16T22:42:26.353Z,33.07
2019-02-16T22:44:52.714Z,32.65
2019-02-16T22:47:19.617Z,33.16
2019-02-16T22:49:47.112Z,33.35
2019-02-16T22:52:13.669Z,33.17
2019-02-16T22:54:40.129Z,33.57
2019-02-16T22:57:06.288Z,33.78
2019-02-16T22:59:32.910Z,33.90
2019-02-16T23:01:59.424Z,33.91
2019-02-16T23:04:25.520Z,33.71
2019-02-16T23:06:52.317Z,34.06
2019-02-16T23:09:20.627Z,33.81
2019-02-16T23:11:46.850Z,33.89
2019-02-16T23:14:12.942Z,33.79
2019-02-16T23:16:39.127Z,34.10
2019-02-16T23:19:06.303Z,34.10
2019-02-16T23:21:32.759Z,34.05
2019-02-16T23:23:59.519Z,34.32
2019-02-16T23:26:26.019Z,34.35
2019-02-16T23:28:53.295Z,34.54
2019-02-16T23:31:19.923Z,34.68
2019-02-16T23:33:46.110Z,34.84
2019-02-16T23:36:12.555Z,35.00
2019-02-16T23:38:38.769Z,34.93
2019-02-16T23:41:06.471Z,35.04
2019-02-16T23:43:32.868Z,35.12
2019-02-16T23:45:58.981Z,35.14
2019-02-16T23:48:25.213Z,35.71
2019-02-16T23:50:51.328Z,35.76
2019-02-16T23:53:17.523Z,35.77
2019-02-16T23:55:43.640Z,35.79
2019-02-16T23:58:09.867Z,35.82
